sensor_id;sensor_type;location;lat;lon;timestamp;P1;durP1;ratioP1;P2;durP2;ratioP2
49444;SDS011;35323;43.080;-81.378;2023-02-28T00:01:22;1.77;;;1.67;;
49444;SDS011;35323;43.080;-81.378;2023-02-28T00:03:54;1.90;;;1.48;;
49444;SDS011;35323;43.080;-81.378;2023-02-28T00:06:21;3.20;;;2.03;;
49444;SDS011;35323;43.080;-81.378;2023-02-28T00:08:49;3.13;;;2.85;;
49444;SDS011;35323;43.080;-81.378;2023-02-28T00:11:17;2.08;;;1.85;;
49444;SDS011;35323;43.080;-81.378;2023-02-28T00:13:46;2.75;;;2.40;;
49444;SDS011;35323;43.080;-81.378;2023-02-28T00:16:15;2.95;;;2.50;;
49444;SDS011;35323;43.080;-81.378;2023-02-28T00:18:43;2.42;;;1.98;;
49444;SDS011;35323;43.080;-81.378;2023-02-28T00:21:11;2.30;;;2.20;;
49444;SDS011;35323;43.080;-81.378;2023-02-28T00:23:38;2.90;;;2.03;;
49444;SDS011;35323;43.080;-81.378;2023-02-28T00:26:06;2.55;;;2.35;;
49444;SDS011;35323;43.080;-81.378;2023-02-28T00:28:33;3.85;;;2.28;;
49444;SDS011;35323;43.080;-81.378;2023-02-28T00:31:02;2.75;;;2.55;;
49444;SDS011;35323;43.080;-81.378;2023-02-28T00:33:32;2.25;;;2.08;;
49444;SDS011;35323;43.080;-81.378;2023-02-28T00:36:01;2.83;;;2.63;;
49444;SDS011;35323;43.080;-81.378;2023-02-28T00:38:29;2.60;;;2.33;;
49444;SDS011;35323;43.080;-81.378;2023-02-28T00:40:57;2.95;;;2.75;;
49444;SDS011;35323;43.080;-81.378;2023-02-28T00:43:25;2.35;;;2.17;;
49444;SDS011;35323;43.080;-81.378;2023-02-28T00:45:53;2.97;;;2.42;;
49444;SDS011;35323;43.080;-81.378;2023-02-28T00:48:21;2.38;;;2.17;;
49444;SDS011;35323;43.080;-81.378;2023-02-28T00:50:49;3.33;;;3.03;;
49444;SDS011;35323;43.080;-81.378;2023-02-28T00:53:17;2.55;;;2.35;;
49444;SDS011;35323;43.080;-81.378;2023-02-28T00:55:45;2.15;;;2.05;;
49444;SDS011;35323;43.080;-81.378;2023-02-28T00:58:12;3.00;;;1.95;;
49444;SDS011;35323;43.080;-81.378;2023-02-28T01:00:40;1.90;;;1.45;;
49444;SDS011;35323;43.080;-81.378;2023-02-28T01:03:07;2.65;;;1.92;;
49444;SDS011;35323;43.080;-81.378;2023-02-28T01:05:35;1.40;;;1.33;;
49444;SDS011;35323;43.080;-81.378;2023-02-28T01:08:02;1.63;;;1.48;;
49444;SDS011;35323;43.080;-81.378;2023-02-28T01:10:32;3.15;;;2.35;;
49444;SDS011;35323;43.080;-81.378;2023-02-28T01:13:00;2.90;;;1.92;;
49444;SDS011;35323;43.080;-81.378;2023-02-28T01:15:28;2.42;;;2.22;;
49444;SDS011;35323;43.080;-81.378;2023-02-28T01:17:55;1.83;;;1.45;;
49444;SDS011;35323;43.080;-81.378;2023-02-28T01:20:23;2.47;;;2.22;;
49444;SDS011;35323;43.080;-81.378;2023-02-28T01:22:51;3.65;;;2.40;;
49444;SDS011;35323;43.080;-81.378;2023-02-28T01:25:19;2.42;;;1.90;;
49444;SDS011;35323;43.080;-81.378;2023-02-28T01:27:47;2.17;;;1.98;;
49444;SDS011;35323;43.080;-81.378;2023-02-28T01:30:14;1.65;;;1.52;;
49444;SDS011;35323;43.080;-81.378;2023-02-28T01:32:45;2.35;;;2.15;;
49444;SDS011;35323;43.080;-81.378;2023-02-28T01:35:12;2.05;;;1.95;;
49444;SDS011;35323;43.080;-81.378;2023-02-28T01:37:40;2.13;;;2.03;;
49444;SDS011;35323;43.080;-81.378;2023-02-28T01:40:07;1.85;;;1.60;;
49444;SDS011;35323;43.080;-81.378;2023-02-28T01:42:35;2.60;;;2.33;;
49444;SDS011;35323;43.080;-81.378;2023-02-28T01:45:14;3.08;;;2.60;;
49444;SDS011;35323;43.080;-81.378;2023-02-28T01:47:44;2.10;;;1.90;;
49444;SDS011;35323;43.080;-81.378;2023-02-28T01:50:13;2.15;;;1.95;;
49444;SDS011;35323;43.080;-81.378;2023-02-28T01:52:42;2.20;;;1.90;;
49444;SDS011;35323;43.080;-81.378;2023-02-28T01:55:11;2.83;;;1.92;;
49444;SDS011;35323;43.080;-81.378;2023-02-28T01:57:41;3.22;;;2.05;;
49444;SDS011;35323;43.080;-81.378;2023-02-28T02:00:15;2.53;;;2.13;;
49444;SDS011;35323;43.080;-81.378;2023-02-28T02:02:44;2.53;;;2.08;;
49444;SDS011;35323;43.080;-81.378;2023-02-28T02:05:16;2.78;;;2.30;;
49444;SDS011;35323;43.080;-81.378;2023-02-28T02:07:46;2.28;;;2.08;;
49444;SDS011;35323;43.080;-81.378;2023-02-28T02:10:16;3.30;;;2.20;;
49444;SDS011;35323;43.080;-81.378;2023-02-28T02:15:34;2.80;;;2.55;;
49444;SDS011;35323;43.080;-81.378;2023-02-28T02:18:04;1.65;;;1.55;;
49444;SDS011;35323;43.080;-81.378;2023-02-28T02:20:56;1.95;;;1.83;;
49444;SDS011;35323;43.080;-81.378;2023-02-28T02:23:31;2.53;;;2.33;;
49444;SDS011;35323;43.080;-81.378;2023-02-28T02:36:38;2.08;;;1.92;;
49444;SDS011;35323;43.080;-81.378;2023-02-28T02:41:46;4.13;;;2.60;;
49444;SDS011;35323;43.080;-81.378;2023-02-28T02:44:23;2.83;;;2.60;;
49444;SDS011;35323;43.080;-81.378;2023-02-28T02:46:53;3.10;;;2.80;;
49444;SDS011;35323;43.080;-81.378;2023-02-28T02:49:24;2.35;;;2.15;;
49444;SDS011;35323;43.080;-81.378;2023-02-28T02:51:53;3.38;;;2.55;;
49444;SDS011;35323;43.080;-81.378;2023-02-28T02:54:22;2.45;;;2.25;;
49444;SDS011;35323;43.080;-81.378;2023-02-28T02:56:59;2.38;;;2.17;;
49444;SDS011;35323;43.080;-81.378;2023-02-28T02:59:27;2.60;;;2.40;;
49444;SDS011;35323;43.080;-81.378;2023-02-28T03:01:57;4.28;;;2.67;;
49444;SDS011;35323;43.080;-81.378;2023-02-28T03:04:26;4.47;;;3.03;;
49444;SDS011;35323;43.080;-81.378;2023-02-28T03:06:56;2.65;;;2.35;;
49444;SDS011;35323;43.080;-81.378;2023-02-28T03:09:24;3.17;;;2.70;;
49444;SDS011;35323;43.080;-81.378;2023-02-28T03:11:54;3.97;;;3.60;;
49444;SDS011;35323;43.080;-81.378;2023-02-28T03:14:40;2.45;;;2.22;;
49444;SDS011;35323;43.080;-81.378;2023-02-28T03:19:54;2.92;;;2.25;;
49444;SDS011;35323;43.080;-81.378;2023-02-28T03:22:45;4.03;;;2.00;;
49444;SDS011;35323;43.080;-81.378;2023-02-28T03:28:01;3.28;;;1.88;;
49444;SDS011;35323;43.080;-81.378;2023-02-28T03:30:35;2.88;;;2.58;;
49444;SDS011;35323;43.080;-81.378;2023-02-28T03:33:06;2.80;;;2.00;;
49444;SDS011;35323;43.080;-81.378;2023-02-28T03:35:36;4.13;;;2.85;;
49444;SDS011;35323;43.080;-81.378;2023-02-28T03:38:11;3.92;;;2.83;;
49444;SDS011;35323;43.080;-81.378;2023-02-28T03:40:42;2.38;;;2.17;;
49444;SDS011;35323;43.080;-81.378;2023-02-28T03:43:12;2.72;;;2.53;;
49444;SDS011;35323;43.080;-81.378;2023-02-28T03:45:41;3.00;;;1.88;;
49444;SDS011;35323;43.080;-81.378;2023-02-28T03:50:39;2.67;;;2.15;;
49444;SDS011;35323;43.080;-81.378;2023-02-28T03:53:31;4.03;;;2.15;;
49444;SDS011;35323;43.080;-81.378;2023-02-28T03:55:56;3.50;;;2.15;;
49444;SDS011;35323;43.080;-81.378;2023-02-28T03:58:30;2.55;;;1.63;;
49444;SDS011;35323;43.080;-81.378;2023-02-28T04:01:09;3.25;;;2.05;;
49444;SDS011;35323;43.080;-81.378;2023-02-28T04:03:40;1.75;;;1.30;;
49444;SDS011;35323;43.080;-81.378;2023-02-28T04:06:08;3.20;;;2.38;;
49444;SDS011;35323;43.080;-81.378;2023-02-28T04:08:37;2.70;;;2.50;;
49444;SDS011;35323;43.080;-81.378;2023-02-28T04:11:12;3.58;;;2.53;;
49444;SDS011;35323;43.080;-81.378;2023-02-28T04:13:43;3.35;;;2.40;;
49444;SDS011;35323;43.080;-81.378;2023-02-28T04:16:15;3.20;;;2.22;;
49444;SDS011;35323;43.080;-81.378;2023-02-28T04:19:00;5.63;;;2.08;;
49444;SDS011;35323;43.080;-81.378;2023-02-28T04:21:34;2.72;;;2.33;;
49444;SDS011;35323;43.080;-81.378;2023-02-28T04:24:02;5.00;;;2.47;;
49444;SDS011;35323;43.080;-81.378;2023-02-28T04:26:31;2.85;;;2.55;;
49444;SDS011;35323;43.080;-81.378;2023-02-28T04:28:59;3.35;;;2.88;;
49444;SDS011;35323;43.080;-81.378;2023-02-28T04:31:27;3.28;;;2.75;;
49444;SDS011;35323;43.080;-81.378;2023-02-28T04:33:55;2.15;;;1.95;;
49444;SDS011;35323;43.080;-81.378;2023-02-28T04:36:22;4.57;;;3.25;;
49444;SDS011;35323;43.080;-81.378;2023-02-28T04:38:50;3.60;;;2.22;;
49444;SDS011;35323;43.080;-81.378;2023-02-28T04:41:18;3.10;;;2.60;;
49444;SDS011;35323;43.080;-81.378;2023-02-28T04:43:46;2.88;;;2.60;;
49444;SDS011;35323;43.080;-81.378;2023-02-28T04:46:14;4.18;;;2.67;;
49444;SDS011;35323;43.080;-81.378;2023-02-28T04:48:42;3.28;;;2.92;;
49444;SDS011;35323;43.080;-81.378;2023-02-28T04:51:12;2.72;;;2.30;;
49444;SDS011;35323;43.080;-81.378;2023-02-28T04:53:40;3.15;;;2.50;;
49444;SDS011;35323;43.080;-81.378;2023-02-28T04:56:10;5.60;;;3.20;;
49444;SDS011;35323;43.080;-81.378;2023-02-28T04:58:38;4.57;;;2.80;;
49444;SDS011;35323;43.080;-81.378;2023-02-28T05:01:15;3.15;;;2.90;;
49444;SDS011;35323;43.080;-81.378;2023-02-28T05:03:44;3.45;;;3.13;;
49444;SDS011;35323;43.080;-81.378;2023-02-28T05:06:12;2.63;;;2.42;;
49444;SDS011;35323;43.080;-81.378;2023-02-28T05:08:40;3.67;;;2.55;;
49444;SDS011;35323;43.080;-81.378;2023-02-28T05:11:29;3.08;;;2.78;;
49444;SDS011;35323;43.080;-81.378;2023-02-28T05:14:04;3.38;;;3.08;;
49444;SDS011;35323;43.080;-81.378;2023-02-28T05:16:32;4.10;;;2.72;;
49444;SDS011;35323;43.080;-81.378;2023-02-28T05:19:00;3.13;;;2.85;;
49444;SDS011;35323;43.080;-81.378;2023-02-28T05:21:38;4.22;;;3.40;;
49444;SDS011;35323;43.080;-81.378;2023-02-28T05:24:07;3.72;;;2.70;;
49444;SDS011;35323;43.080;-81.378;2023-02-28T05:26:35;3.63;;;3.20;;
49444;SDS011;35323;43.080;-81.378;2023-02-28T05:29:03;2.50;;;2.30;;
49444;SDS011;35323;43.080;-81.378;2023-02-28T05:31:31;3.92;;;2.72;;
49444;SDS011;35323;43.080;-81.378;2023-02-28T05:33:59;5.72;;;2.58;;
49444;SDS011;35323;43.080;-81.378;2023-02-28T05:36:27;6.03;;;3.38;;
49444;SDS011;35323;43.080;-81.378;2023-02-28T05:38:55;2.20;;;2.00;;
49444;SDS011;35323;43.080;-81.378;2023-02-28T05:41:24;2.90;;;2.47;;
49444;SDS011;35323;43.080;-81.378;2023-02-28T05:43:53;4.05;;;2.60;;
49444;SDS011;35323;43.080;-81.378;2023-02-28T05:46:21;10.35;;;3.33;;
49444;SDS011;35323;43.080;-81.378;2023-02-28T05:48:50;3.67;;;2.97;;
49444;SDS011;35323;43.080;-81.378;2023-02-28T05:51:17;4.88;;;2.50;;
49444;SDS011;35323;43.080;-81.378;2023-02-28T05:53:45;3.95;;;2.78;;
49444;SDS011;35323;43.080;-81.378;2023-02-28T05:56:13;3.85;;;2.85;;
49444;SDS011;35323;43.080;-81.378;2023-02-28T05:58:41;2.50;;;2.22;;
49444;SDS011;35323;43.080;-81.378;2023-02-28T06:03:52;2.28;;;2.13;;
49444;SDS011;35323;43.080;-81.378;2023-02-28T06:06:19;2.50;;;2.30;;
49444;SDS011;35323;43.080;-81.378;2023-02-28T06:08:50;3.25;;;2.92;;
49444;SDS011;35323;43.080;-81.378;2023-02-28T06:11:17;3.75;;;2.72;;
49444;SDS011;35323;43.080;-81.378;2023-02-28T06:13:47;3.53;;;3.13;;
49444;SDS011;35323;43.080;-81.378;2023-02-28T06:16:15;4.05;;;2.63;;
49444;SDS011;35323;43.080;-81.378;2023-02-28T06:18:43;3.47;;;3.10;;
49444;SDS011;35323;43.080;-81.378;2023-02-28T06:21:11;4.10;;;2.90;;
49444;SDS011;35323;43.080;-81.378;2023-02-28T06:23:39;3.67;;;3.13;;
49444;SDS011;35323;43.080;-81.378;2023-02-28T06:26:06;4.70;;;2.92;;
49444;SDS011;35323;43.080;-81.378;2023-02-28T06:28:34;2.95;;;2.35;;
49444;SDS011;35323;43.080;-81.378;2023-02-28T06:31:06;5.97;;;3.08;;
49444;SDS011;35323;43.080;-81.378;2023-02-28T06:33:34;3.15;;;2.67;;
49444;SDS011;35323;43.080;-81.378;2023-02-28T06:36:01;3.97;;;3.20;;
49444;SDS011;35323;43.080;-81.378;2023-02-28T06:38:30;4.10;;;3.35;;
49444;SDS011;35323;43.080;-81.378;2023-02-28T06:40:59;3.13;;;2.70;;
49444;SDS011;35323;43.080;-81.378;2023-02-28T06:43:29;4.60;;;3.50;;
49444;SDS011;35323;43.080;-81.378;2023-02-28T06:45:57;4.28;;;2.97;;
49444;SDS011;35323;43.080;-81.378;2023-02-28T06:48:26;3.63;;;2.97;;
49444;SDS011;35323;43.080;-81.378;2023-02-28T06:51:07;3.20;;;2.72;;
49444;SDS011;35323;43.080;-81.378;2023-02-28T06:53:36;6.07;;;4.07;;
49444;SDS011;35323;43.080;-81.378;2023-02-28T06:56:04;4.90;;;3.10;;
49444;SDS011;35323;43.080;-81.378;2023-02-28T06:58:33;3.53;;;3.25;;
49444;SDS011;35323;43.080;-81.378;2023-02-28T07:01:05;6.03;;;3.45;;
49444;SDS011;35323;43.080;-81.378;2023-02-28T07:03:34;3.85;;;3.13;;
49444;SDS011;35323;43.080;-81.378;2023-02-28T07:06:02;4.57;;;2.92;;
49444;SDS011;35323;43.080;-81.378;2023-02-28T07:08:31;3.13;;;2.92;;
49444;SDS011;35323;43.080;-81.378;2023-02-28T07:10:59;4.90;;;4.10;;
49444;SDS011;35323;43.080;-81.378;2023-02-28T07:13:26;3.55;;;3.15;;
49444;SDS011;35323;43.080;-81.378;2023-02-28T07:15:57;4.60;;;3.05;;
49444;SDS011;35323;43.080;-81.378;2023-02-28T07:18:25;5.03;;;3.03;;
49444;SDS011;35323;43.080;-81.378;2023-02-28T07:20:54;4.15;;;3.75;;
49444;SDS011;35323;43.080;-81.378;2023-02-28T07:23:22;5.05;;;2.80;;
49444;SDS011;35323;43.080;-81.378;2023-02-28T07:25:50;4.15;;;3.13;;
49444;SDS011;35323;43.080;-81.378;2023-02-28T07:28:18;8.50;;;4.20;;
49444;SDS011;35323;43.080;-81.378;2023-02-28T07:30:45;3.92;;;3.17;;
49444;SDS011;35323;43.080;-81.378;2023-02-28T07:33:13;6.15;;;3.78;;
49444;SDS011;35323;43.080;-81.378;2023-02-28T07:35:44;4.57;;;3.72;;
49444;SDS011;35323;43.080;-81.378;2023-02-28T07:38:15;5.13;;;3.40;;
49444;SDS011;35323;43.080;-81.378;2023-02-28T07:40:43;4.15;;;3.17;;
49444;SDS011;35323;43.080;-81.378;2023-02-28T07:43:11;3.75;;;3.30;;
49444;SDS011;35323;43.080;-81.378;2023-02-28T07:45:38;3.17;;;2.95;;
49444;SDS011;35323;43.080;-81.378;2023-02-28T07:48:08;3.83;;;3.38;;
49444;SDS011;35323;43.080;-81.378;2023-02-28T07:50:37;7.25;;;4.53;;
49444;SDS011;35323;43.080;-81.378;2023-02-28T07:53:05;6.55;;;3.95;;
49444;SDS011;35323;43.080;-81.378;2023-02-28T07:55:32;4.32;;;3.92;;
49444;SDS011;35323;43.080;-81.378;2023-02-28T07:58:00;3.85;;;3.47;;
49444;SDS011;35323;43.080;-81.378;2023-02-28T08:00:27;6.07;;;4.93;;
49444;SDS011;35323;43.080;-81.378;2023-02-28T08:02:56;7.85;;;4.93;;
49444;SDS011;35323;43.080;-81.378;2023-02-28T08:05:23;8.45;;;5.50;;
49444;SDS011;35323;43.080;-81.378;2023-02-28T08:07:51;6.28;;;5.05;;
49444;SDS011;35323;43.080;-81.378;2023-02-28T08:10:20;6.53;;;5.82;;
49444;SDS011;35323;43.080;-81.378;2023-02-28T08:12:48;7.97;;;6.05;;
49444;SDS011;35323;43.080;-81.378;2023-02-28T08:15:15;9.38;;;6.57;;
49444;SDS011;35323;43.080;-81.378;2023-02-28T08:17:43;11.10;;;5.97;;
49444;SDS011;35323;43.080;-81.378;2023-02-28T08:20:11;8.65;;;6.03;;
49444;SDS011;35323;43.080;-81.378;2023-02-28T08:22:39;9.35;;;6.90;;
49444;SDS011;35323;43.080;-81.378;2023-02-28T08:25:06;10.50;;;6.68;;
49444;SDS011;35323;43.080;-81.378;2023-02-28T08:27:34;11.02;;;9.55;;
49444;SDS011;35323;43.080;-81.378;2023-02-28T08:30:03;9.35;;;7.90;;
49444;SDS011;35323;43.080;-81.378;2023-02-28T08:32:31;10.32;;;7.18;;
49444;SDS011;35323;43.080;-81.378;2023-02-28T08:34:59;10.05;;;6.82;;
49444;SDS011;35323;43.080;-81.378;2023-02-28T08:37:27;11.95;;;9.02;;
49444;SDS011;35323;43.080;-81.378;2023-02-28T08:39:54;9.70;;;6.88;;
49444;SDS011;35323;43.080;-81.378;2023-02-28T08:42:22;8.90;;;5.40;;
49444;SDS011;35323;43.080;-81.378;2023-02-28T08:44:50;9.10;;;5.57;;
49444;SDS011;35323;43.080;-81.378;2023-02-28T08:47:18;7.50;;;6.38;;
49444;SDS011;35323;43.080;-81.378;2023-02-28T08:49:46;7.63;;;5.97;;
49444;SDS011;35323;43.080;-81.378;2023-02-28T08:52:13;10.70;;;7.40;;
49444;SDS011;35323;43.080;-81.378;2023-02-28T08:54:41;13.43;;;6.93;;
49444;SDS011;35323;43.080;-81.378;2023-02-28T08:57:08;9.25;;;7.07;;
49444;SDS011;35323;43.080;-81.378;2023-02-28T08:59:36;12.15;;;7.07;;
49444;SDS011;35323;43.080;-81.378;2023-02-28T09:02:04;13.85;;;7.68;;
49444;SDS011;35323;43.080;-81.378;2023-02-28T09:04:33;11.20;;;7.28;;
49444;SDS011;35323;43.080;-81.378;2023-02-28T09:07:00;10.38;;;6.30;;
49444;SDS011;35323;43.080;-81.378;2023-02-28T09:09:28;10.95;;;5.70;;
49444;SDS011;35323;43.080;-81.378;2023-02-28T09:11:56;6.38;;;3.63;;
49444;SDS011;35323;43.080;-81.378;2023-02-28T09:14:24;7.68;;;5.70;;
49444;SDS011;35323;43.080;-81.378;2023-02-28T09:16:52;8.98;;;5.00;;
49444;SDS011;35323;43.080;-81.378;2023-02-28T09:19:19;6.82;;;4.13;;
49444;SDS011;35323;43.080;-81.378;2023-02-28T09:21:47;8.90;;;4.50;;
49444;SDS011;35323;43.080;-81.378;2023-02-28T09:24:15;7.45;;;4.35;;
49444;SDS011;35323;43.080;-81.378;2023-02-28T09:26:43;9.70;;;5.15;;
49444;SDS011;35323;43.080;-81.378;2023-02-28T09:29:28;8.15;;;4.38;;
49444;SDS011;35323;43.080;-81.378;2023-02-28T09:31:56;6.60;;;4.40;;
49444;SDS011;35323;43.080;-81.378;2023-02-28T09:34:27;6.97;;;3.78;;
49444;SDS011;35323;43.080;-81.378;2023-02-28T09:36:57;4.47;;;3.80;;
49444;SDS011;35323;43.080;-81.378;2023-02-28T09:39:26;5.95;;;4.38;;
49444;SDS011;35323;43.080;-81.378;2023-02-28T09:41:55;5.53;;;4.35;;
49444;SDS011;35323;43.080;-81.378;2023-02-28T09:44:30;8.63;;;5.07;;
49444;SDS011;35323;43.080;-81.378;2023-02-28T09:47:08;7.03;;;3.97;;
49444;SDS011;35323;43.080;-81.378;2023-02-28T09:49:41;6.40;;;5.25;;
49444;SDS011;35323;43.080;-81.378;2023-02-28T09:52:13;4.75;;;4.13;;
49444;SDS011;35323;43.080;-81.378;2023-02-28T09:54:43;6.05;;;4.35;;
49444;SDS011;35323;43.080;-81.378;2023-02-28T10:00:34;7.63;;;4.82;;
49444;SDS011;35323;43.080;-81.378;2023-02-28T10:05:15;7.43;;;4.18;;
49444;SDS011;35323;43.080;-81.378;2023-02-28T10:07:48;10.90;;;6.07;;
49444;SDS011;35323;43.080;-81.378;2023-02-28T10:10:27;7.20;;;3.22;;
49444;SDS011;35323;43.080;-81.378;2023-02-28T10:12:57;5.72;;;4.78;;
49444;SDS011;35323;43.080;-81.378;2023-02-28T10:15:27;6.63;;;4.78;;
49444;SDS011;35323;43.080;-81.378;2023-02-28T10:17:57;4.10;;;3.03;;
49444;SDS011;35323;43.080;-81.378;2023-02-28T10:20:35;5.72;;;3.85;;
49444;SDS011;35323;43.080;-81.378;2023-02-28T10:23:17;6.70;;;4.38;;
49444;SDS011;35323;43.080;-81.378;2023-02-28T10:26:33;4.15;;;3.30;;
49444;SDS011;35323;43.080;-81.378;2023-02-28T10:28:36;7.03;;;3.53;;
49444;SDS011;35323;43.080;-81.378;2023-02-28T10:31:03;3.97;;;3.58;;
49444;SDS011;35323;43.080;-81.378;2023-02-28T10:33:34;4.78;;;2.90;;
49444;SDS011;35323;43.080;-81.378;2023-02-28T10:36:03;2.70;;;2.25;;
49444;SDS011;35323;43.080;-81.378;2023-02-28T10:38:35;3.17;;;2.75;;
49444;SDS011;35323;43.080;-81.378;2023-02-28T10:41:04;3.10;;;2.83;;
49444;SDS011;35323;43.080;-81.378;2023-02-28T10:43:33;1.88;;;1.63;;
49444;SDS011;35323;43.080;-81.378;2023-02-28T10:46:03;5.07;;;3.10;;
49444;SDS011;35323;43.080;-81.378;2023-02-28T10:48:40;3.85;;;2.85;;
49444;SDS011;35323;43.080;-81.378;2023-02-28T10:51:11;1.83;;;1.52;;
49444;SDS011;35323;43.080;-81.378;2023-02-28T10:53:44;1.85;;;1.30;;
49444;SDS011;35323;43.080;-81.378;2023-02-28T10:56:26;3.00;;;2.65;;
49444;SDS011;35323;43.080;-81.378;2023-02-28T10:58:57;1.80;;;1.58;;
49444;SDS011;35323;43.080;-81.378;2023-02-28T11:04:00;2.38;;;2.17;;
49444;SDS011;35323;43.080;-81.378;2023-02-28T11:06:31;2.63;;;2.10;;
49444;SDS011;35323;43.080;-81.378;2023-02-28T11:09:02;4.82;;;2.50;;
49444;SDS011;35323;43.080;-81.378;2023-02-28T11:11:30;3.70;;;2.35;;
49444;SDS011;35323;43.080;-81.378;2023-02-28T11:14:03;2.63;;;1.60;;
49444;SDS011;35323;43.080;-81.378;2023-02-28T11:16:35;2.33;;;2.13;;
49444;SDS011;35323;43.080;-81.378;2023-02-28T11:19:04;3.05;;;2.35;;
49444;SDS011;35323;43.080;-81.378;2023-02-28T11:21:35;4.13;;;2.75;;
49444;SDS011;35323;43.080;-81.378;2023-02-28T11:24:31;3.13;;;2.03;;
49444;SDS011;35323;43.080;-81.378;2023-02-28T11:26:55;2.85;;;2.65;;
49444;SDS011;35323;43.080;-81.378;2023-02-28T11:29:27;3.42;;;3.20;;
49444;SDS011;35323;43.080;-81.378;2023-02-28T11:34:38;2.30;;;2.10;;
49444;SDS011;35323;43.080;-81.378;2023-02-28T11:37:13;2.33;;;1.70;;
49444;SDS011;35323;43.080;-81.378;2023-02-28T11:39:42;4.18;;;2.67;;
49444;SDS011;35323;43.080;-81.378;2023-02-28T11:42:20;3.72;;;2.65;;
49444;SDS011;35323;43.080;-81.378;2023-02-28T11:44:54;2.65;;;2.28;;
49444;SDS011;35323;43.080;-81.378;2023-02-28T11:47:43;4.32;;;2.90;;
49444;SDS011;35323;43.080;-81.378;2023-02-28T11:55:28;2.65;;;2.45;;
49444;SDS011;35323;43.080;-81.378;2023-02-28T11:58:33;4.70;;;3.33;;
49444;SDS011;35323;43.080;-81.378;2023-02-28T12:06:06;4.03;;;2.90;;
49444;SDS011;35323;43.080;-81.378;2023-02-28T12:08:46;6.55;;;2.90;;
49444;SDS011;35323;43.080;-81.378;2023-02-28T12:19:43;2.55;;;2.25;;
49444;SDS011;35323;43.080;-81.378;2023-02-28T12:22:12;3.20;;;2.90;;
49444;SDS011;35323;43.080;-81.378;2023-02-28T12:27:14;2.58;;;2.25;;
49444;SDS011;35323;43.080;-81.378;2023-02-28T12:29:46;3.42;;;3.10;;
49444;SDS011;35323;43.080;-81.378;2023-02-28T12:34:47;3.80;;;2.38;;
49444;SDS011;35323;43.080;-81.378;2023-02-28T12:37:17;4.55;;;3.47;;
49444;SDS011;35323;43.080;-81.378;2023-02-28T12:39:48;2.60;;;2.40;;
49444;SDS011;35323;43.080;-81.378;2023-02-28T12:42:39;3.00;;;2.67;;
49444;SDS011;35323;43.080;-81.378;2023-02-28T12:45:07;3.15;;;2.20;;
49444;SDS011;35323;43.080;-81.378;2023-02-28T12:47:38;3.47;;;3.05;;
49444;SDS011;35323;43.080;-81.378;2023-02-28T12:50:07;3.70;;;2.33;;
49444;SDS011;35323;43.080;-81.378;2023-02-28T12:53:01;2.42;;;1.85;;
49444;SDS011;35323;43.080;-81.378;2023-02-28T13:01:02;3.55;;;1.88;;
49444;SDS011;35323;43.080;-81.378;2023-02-28T13:06:24;3.33;;;2.47;;
49444;SDS011;35323;43.080;-81.378;2023-02-28T13:09:04;2.30;;;1.13;;
49444;SDS011;35323;43.080;-81.378;2023-02-28T13:11:38;2.28;;;2.08;;
49444;SDS011;35323;43.080;-81.378;2023-02-28T13:14:26;4.72;;;2.70;;
49444;SDS011;35323;43.080;-81.378;2023-02-28T13:16:56;5.25;;;2.15;;
49444;SDS011;35323;43.080;-81.378;2023-02-28T13:19:31;1.63;;;1.52;;
49444;SDS011;35323;43.080;-81.378;2023-02-28T13:22:00;2.10;;;1.85;;
49444;SDS011;35323;43.080;-81.378;2023-02-28T13:29:38;3.60;;;2.55;;
49444;SDS011;35323;43.080;-81.378;2023-02-28T13:34:46;2.78;;;2.55;;
49444;SDS011;35323;43.080;-81.378;2023-02-28T13:39:50;2.97;;;2.03;;
49444;SDS011;35323;43.080;-81.378;2023-02-28T13:47:40;1.45;;;1.23;;
49444;SDS011;35323;43.080;-81.378;2023-02-28T13:50:15;2.25;;;1.95;;
49444;SDS011;35323;43.080;-81.378;2023-02-28T13:53:00;3.22;;;1.95;;
49444;SDS011;35323;43.080;-81.378;2023-02-28T13:55:31;3.40;;;3.10;;
49444;SDS011;35323;43.080;-81.378;2023-02-28T14:00:45;2.17;;;2.05;;
49444;SDS011;35323;43.080;-81.378;2023-02-28T14:05:41;3.97;;;2.60;;
49444;SDS011;35323;43.080;-81.378;2023-02-28T14:08:16;2.35;;;2.03;;
49444;SDS011;35323;43.080;-81.378;2023-02-28T14:10:46;4.63;;;2.80;;
49444;SDS011;35323;43.080;-81.378;2023-02-28T14:13:36;4.43;;;2.80;;
49444;SDS011;35323;43.080;-81.378;2023-02-28T14:16:05;2.13;;;1.67;;
49444;SDS011;35323;43.080;-81.378;2023-02-28T14:18:34;3.85;;;1.92;;
49444;SDS011;35323;43.080;-81.378;2023-02-28T14:21:10;1.85;;;1.75;;
49444;SDS011;35323;43.080;-81.378;2023-02-28T14:29:05;2.00;;;1.83;;
49444;SDS011;35323;43.080;-81.378;2023-02-28T14:31:39;2.08;;;1.95;;
49444;SDS011;35323;43.080;-81.378;2023-02-28T14:36:39;2.40;;;2.20;;
49444;SDS011;35323;43.080;-81.378;2023-02-28T14:39:13;3.00;;;2.10;;
49444;SDS011;35323;43.080;-81.378;2023-02-28T14:41:42;3.85;;;1.75;;
49444;SDS011;35323;43.080;-81.378;2023-02-28T14:46:41;2.28;;;1.98;;
49444;SDS011;35323;43.080;-81.378;2023-02-28T14:49:14;1.77;;;1.15;;
49444;SDS011;35323;43.080;-81.378;2023-02-28T14:51:43;2.70;;;1.90;;
49444;SDS011;35323;43.080;-81.378;2023-02-28T14:54:13;1.65;;;1.55;;
49444;SDS011;35323;43.080;-81.378;2023-02-28T14:56:41;2.92;;;1.88;;
49444;SDS011;35323;43.080;-81.378;2023-02-28T15:02:29;1.48;;;1.38;;
49444;SDS011;35323;43.080;-81.378;2023-02-28T15:04:59;4.03;;;1.88;;
49444;SDS011;35323;43.080;-81.378;2023-02-28T15:07:27;3.42;;;2.30;;
49444;SDS011;35323;43.080;-81.378;2023-02-28T15:12:35;4.05;;;1.58;;
49444;SDS011;35323;43.080;-81.378;2023-02-28T15:15:03;3.03;;;1.70;;
49444;SDS011;35323;43.080;-81.378;2023-02-28T15:17:31;1.48;;;1.38;;
49444;SDS011;35323;43.080;-81.378;2023-02-28T15:19:59;1.40;;;1.10;;
49444;SDS011;35323;43.080;-81.378;2023-02-28T15:22:28;3.05;;;2.03;;
49444;SDS011;35323;43.080;-81.378;2023-02-28T15:24:56;0.90;;;0.90;;
49444;SDS011;35323;43.080;-81.378;2023-02-28T15:27:26;1.73;;;1.52;;
49444;SDS011;35323;43.080;-81.378;2023-02-28T15:29:55;2.00;;;1.80;;
49444;SDS011;35323;43.080;-81.378;2023-02-28T15:32:28;1.00;;;1.00;;
49444;SDS011;35323;43.080;-81.378;2023-02-28T15:34:56;2.20;;;1.13;;
49444;SDS011;35323;43.080;-81.378;2023-02-28T15:40:14;1.80;;;1.48;;
49444;SDS011;35323;43.080;-81.378;2023-02-28T15:42:57;1.35;;;1.25;;
49444;SDS011;35323;43.080;-81.378;2023-02-28T15:45:27;1.00;;;1.00;;
49444;SDS011;35323;43.080;-81.378;2023-02-28T15:47:55;3.42;;;1.95;;
49444;SDS011;35323;43.080;-81.378;2023-02-28T15:50:28;3.20;;;1.83;;
49444;SDS011;35323;43.080;-81.378;2023-02-28T15:52:57;1.67;;;1.58;;
49444;SDS011;35323;43.080;-81.378;2023-02-28T15:55:27;1.80;;;1.70;;
49444;SDS011;35323;43.080;-81.378;2023-02-28T15:58:00;1.00;;;0.98;;
49444;SDS011;35323;43.080;-81.378;2023-02-28T16:00:29;3.38;;;2.08;;
49444;SDS011;35323;43.080;-81.378;2023-02-28T16:02:57;1.63;;;1.52;;
49444;SDS011;35323;43.080;-81.378;2023-02-28T16:05:28;3.10;;;1.90;;
49444;SDS011;35323;43.080;-81.378;2023-02-28T16:10:47;1.45;;;1.10;;
49444;SDS011;35323;43.080;-81.378;2023-02-28T16:13:15;2.55;;;1.63;;
49444;SDS011;35323;43.080;-81.378;2023-02-28T16:15:43;2.78;;;1.80;;
49444;SDS011;35323;43.080;-81.378;2023-02-28T16:18:11;4.40;;;1.90;;
49444;SDS011;35323;43.080;-81.378;2023-02-28T16:20:39;2.15;;;2.05;;
49444;SDS011;35323;43.080;-81.378;2023-02-28T16:23:07;1.85;;;1.70;;
49444;SDS011;35323;43.080;-81.378;2023-02-28T16:25:38;1.60;;;1.25;;
49444;SDS011;35323;43.080;-81.378;2023-02-28T16:28:13;1.60;;;1.50;;
49444;SDS011;35323;43.080;-81.378;2023-02-28T16:30:42;3.13;;;1.92;;
49444;SDS011;35323;43.080;-81.378;2023-02-28T16:33:10;1.65;;;1.55;;